Time;durP1;ratioP1;P1;durP2;ratioP2;P2;SDS_P1;SDS_P2;PMS_P1;PMS_P2;Temp;Humidity;BMP_temperature;BMP_pressure;BME280_temperature;BME280_humidity;BME280_pressure;Samples;Min_cycle;Max_cycle;Signal;HPM_P1;HPM_P2
2024/01/16 00:01:09;;;;;;;;;;;;;;;-1.68;100.00;100806.78;4974254;28;20337;-69
2024/01/16 00:03:35;;;;;;;;;;;;;;;-1.69;100.00;100805.91;4973368;28;19926;-69
2024/01/16 00:06:01;;;;;;;;;;;;;;;-1.63;100.00;100811.94;4968531;28;20053;-69
2024/01/16 00:08:26;;;;;;;;;;;;;;;-1.65;100.00;100806.69;4974711;28;20016;-69
2024/01/16 00:10:51;;;;;;;;;;;;;;;-1.62;100.00;100803.13;4970103;28;19933;-69
2024/01/16 00:13:16;;;;;;;;;;;;;;;-1.58;100.00;100799.47;4974687;28;20008;-69
2024/01/16 00:15:42;;;;;;;;;;;;;;;-1.64;100.00;100795.25;4971710;28;19925;-69
2024/01/16 00:18:08;;;;;;;;;;;;;;;-1.63;100.00;100791.72;4978622;28;19979;-69
2024/01/16 00:20:33;;;;;;;;;;;;;;;-1.61;100.00;100789.06;4973876;28;20004;-69
2024/01/16 00:22:59;;;;;;;;;;;;;;;-1.73;100.00;100798.16;4975179;28;19968;-69
2024/01/16 00:25:24;;;;;;;;;;;;;;;-1.71;100.00;100797.19;4975401;28;20020;-69
2024/01/16 00:27:49;;;;;;;;;;;;;;;-1.63;100.00;100794.34;4976463;28;19926;-70
2024/01/16 00:30:14;;;;;;;;;;;;;;;-1.70;100.00;100800.69;4973306;28;19953;-69
2024/01/16 00:32:40;;;;;;;;;;;;;;;-1.76;100.00;100803.50;4975217;28;19922;-70
2024/01/16 00:35:05;;;;;;;;;;;;;;;-1.72;100.00;100805.16;4975501;28;19925;-69
2024/01/16 00:37:30;;;;;;;;;;;;;;;-1.73;100.00;100806.06;4975620;28;19925;-69
2024/01/16 00:39:55;;;;;;;;;;;;;;;-1.69;100.00;100794.50;4987054;28;19961;-70
2024/01/16 00:42:21;;;;;;;;;;;;;;;-1.74;100.00;100806.97;4971904;28;20016;-70
2024/01/16 00:44:46;;;;;;;;;;;;;;;-1.80;100.00;100797.44;4974395;28;19928;-69
2024/01/16 00:47:11;;;;;;;;;;;;;;;-1.76;100.00;100800.88;4986878;28;20324;-70
2024/01/16 00:49:37;;;;;;;;;;;;;;;-1.70;100.00;100803.31;4976007;28;20340;-70
2024/01/16 00:52:02;;;;;;;;;;;;;;;-1.73;100.00;100803.44;4969970;28;20376;-70
2024/01/16 00:54:27;;;;;;;;;;;;;;;-1.64;100.00;100800.53;4976215;28;20314;-70
2024/01/16 00:56:55;;;;;;;;;;;;;;;-1.68;100.00;100812.91;4970124;28;19922;-69
2024/01/16 00:59:20;;;;;;;;;;;;;;;-1.77;100.00;100789.47;4969419;28;19921;-70
2024/01/16 01:01:45;;;;;;;;;;;;;;;-1.57;100.00;100823.16;4976370;28;20345;-70
2024/01/16 01:04:11;;;;;;;;;;;;;;;-1.57;100.00;100822.28;4975964;28;20016;-72
2024/01/16 01:06:36;;;;;;;;;;;;;;;-1.54;100.00;100817.81;4968884;28;19948;-70
2024/01/16 01:09:02;;;;;;;;;;;;;;;-1.55;100.00;100812.56;4974514;28;19926;-69
2024/01/16 01:11:28;;;;;;;;;;;;;;;-1.52;100.00;100810.72;4971135;28;19929;-70
2024/01/16 01:13:53;;;;;;;;;;;;;;;-1.47;100.00;100807.94;4970300;28;19922;-70
2024/01/16 01:16:18;;;;;;;;;;;;;;;-1.36;100.00;100812.91;4974405;28;19949;-70
2024/01/16 01:18:43;;;;;;;;;;;;;;;-1.32;100.00;100805.81;4975278;28;19926;-70
2024/01/16 01:21:09;;;;;;;;;;;;;;;-1.32;100.00;100811.91;4971127;28;19998;-70
2024/01/16 01:23:34;;;;;;;;;;;;;;;-1.27;100.00;100809.13;4973549;28;20008;-71
2024/01/16 01:25:59;;;;;;;;;;;;;;;-1.31;100.00;100808.38;4975701;28;19951;-70
2024/01/16 01:28:24;;;;;;;;;;;;;;;-1.26;100.00;100808.25;4993022;28;20203;-70
2024/01/16 01:30:50;;;;;;;;;;;;;;;-1.27;100.00;100810.03;4974134;28;19922;-69
2024/01/16 01:33:16;;;;;;;;;;;;;;;-1.19;100.00;100816.84;4979676;28;19996;-70
2024/01/16 01:35:41;;;;;;;;;;;;;;;-1.25;100.00;100816.13;4975934;28;19929;-70
2024/01/16 01:38:08;;;;;;;;;;;;;;;-1.22;100.00;100813.41;4980080;28;19930;-69
2024/01/16 01:40:33;;;;;;;;;;;;;;;-1.17;100.00;100815.00;4976343;28;19922;-69
2024/01/16 01:42:59;;;;;;;;;;;;;;;-1.23;100.00;100818.69;4977972;28;20382;-69
2024/01/16 01:45:24;;;;;;;;;;;;;;;-1.29;100.00;100809.19;4994589;28;20261;-69
2024/01/16 01:47:49;;;;;;;;;;;;;;;-1.25;100.00;100810.84;4977328;28;19922;-69
2024/01/16 01:50:14;;;;;;;;;;;;;;;-1.29;100.00;100810.97;4974615;28;19953;-69
2024/01/16 01:52:40;;;;;;;;;;;;;;;-1.38;100.00;100823.50;4976961;28;20245;-69
2024/01/16 01:55:06;;;;;;;;;;;;;;;-1.28;100.00;100815.31;4993132;28;19948;-69
2024/01/16 01:57:32;;;;;;;;;;;;;;;-1.36;100.00;100819.06;4991508;28;19926;-69
2024/01/16 01:59:57;;;;;;;;;;;;;;;-1.43;100.00;100820.13;4975705;28;19921;-69
2024/01/16 02:02:22;;;;;;;;;;;;;;;-1.40;100.00;100820.06;4976182;28;19921;-69
2024/01/16 02:04:47;;;;;;;;;;;;;;;-1.44;100.00;100820.16;4978956;28;19968;-69
2024/01/16 02:07:14;;;;;;;;;;;;;;;-1.45;100.00;100819.31;4975432;28;20032;-69
2024/01/16 02:09:39;;;;;;;;;;;;;;;-1.50;100.00;100823.84;4960687;28;20104;-69
2024/01/16 02:12:05;;;;;;;;;;;;;;;-1.44;100.00;100835.97;4979967;28;19980;-70
2024/01/16 02:14:30;;;;;;;;;;;;;;;-1.55;100.00;100837.13;4977624;28;20364;-69
2024/01/16 02:16:55;;;;;;;;;;;;;;;-1.51;100.00;100835.28;4978376;28;20056;-70
2024/01/16 02:19:21;;;;;;;;;;;;;;;-1.51;100.00;100825.63;4977746;28;19922;-70
2024/01/16 02:21:49;;;;;;;;;;;;;;;-1.51;100.00;100830.00;4976802;28;19922;-69
2024/01/16 02:24:15;;;;;;;;;;;;;;;-1.52;100.00;100826.53;4977401;28;19944;-69
2024/01/16 02:26:40;;;;;;;;;;;;;;;-1.42;100.00;100831.50;4978141;28;19921;-69
2024/01/16 02:29:05;;;;;;;;;;;;;;;-1.46;100.00;100832.53;4992748;28;20300;-69
2024/01/16 02:31:31;;;;;;;;;;;;;;;-1.49;100.00;100825.56;4977933;28;19949;-69
2024/01/16 02:33:56;;;;;;;;;;;;;;;-1.49;100.00;100836.09;4978445;28;19936;-70
2024/01/16 02:36:21;;;;;;;;;;;;;;;-1.46;100.00;100830.75;4972441;28;19960;-69
2024/01/16 02:38:47;;;;;;;;;;;;;;;-1.46;100.00;100832.53;4973430;28;20038;-69
2024/01/16 02:41:15;;;;;;;;;;;;;;;-1.61;100.00;100810.13;4975009;28;20467;-70
2024/01/16 02:43:41;;;;;;;;;;;;;;;-1.45;100.00;100827.22;4976614;28;19925;-69
2024/01/16 02:46:06;;;;;;;;;;;;;;;-1.51;100.00;100824.75;4974365;28;19921;-69
2024/01/16 02:48:31;;;;;;;;;;;;;;;-1.50;100.00;100834.38;4974195;28;20443;-69
2024/01/16 02:50:56;;;;;;;;;;;;;;;-1.42;100.00;100840.28;4975101;28;19952;-69
2024/01/16 02:53:22;;;;;;;;;;;;;;;-1.45;100.00;100839.50;4978070;28;19969;-69
2024/01/16 02:55:47;;;;;;;;;;;;;;;-1.44;100.00;100842.09;4970356;28;20055;-69
2024/01/16 02:58:12;;;;;;;;;;;;;;;-1.48;100.00;100835.19;4975327;28;20028;-69
2024/01/16 03:00:37;;;;;;;;;;;;;;;-1.39;100.00;100850.75;4965475;28;19922;-69
2024/01/16 03:03:03;;;;;;;;;;;;;;;-1.40;100.00;100856.91;4974143;28;20400;-69
2024/01/16 03:05:28;;;;;;;;;;;;;;;-1.42;100.00;100858.72;4972933;28;19921;-69
2024/01/16 03:07:53;;;;;;;;;;;;;;;-1.31;100.00;100862.81;4980536;28;20424;-69
2024/01/16 03:10:18;;;;;;;;;;;;;;;-1.24;100.00;100864.38;4977586;28;20426;-69
2024/01/16 03:12:43;;;;;;;;;;;;;;;-1.17;100.00;100862.44;4977286;28;19979;-70
2024/01/16 03:15:09;;;;;;;;;;;;;;;-1.10;100.00;100861.34;4977752;28;19925;-69
2024/01/16 03:17:34;;;;;;;;;;;;;;;-1.02;100.00;100869.03;4972931;28;20174;-70
2024/01/16 03:19:59;;;;;;;;;;;;;;;-0.98;100.00;100866.28;4995175;28;19922;-70
2024/01/16 03:22:25;;;;;;;;;;;;;;;-0.95;100.00;100862.69;4975407;28;20405;-69
2024/01/16 03:24:50;;;;;;;;;;;;;;;-0.95;100.00;100857.41;4977842;28;19917;-70
2024/01/16 03:27:16;;;;;;;;;;;;;;;-0.87;100.00;100855.41;4979197;28;19987;-70
2024/01/16 03:29:41;;;;;;;;;;;;;;;-0.93;100.00;100856.44;4971831;28;20309;-69
2024/01/16 03:32:06;;;;;;;;;;;;;;;-0.86;100.00;100849.25;4974882;28;20019;-71
2024/01/16 03:34:31;;;;;;;;;;;;;;;-0.81;100.00;100844.69;4976228;28;19926;-70
2024/01/16 03:36:57;;;;;;;;;;;;;;;-0.91;100.00;100846.72;4974806;28;19964;-70
2024/01/16 03:39:22;;;;;;;;;;;;;;;-0.88;100.00;100844.91;4993561;28;19971;-69
2024/01/16 03:41:47;;;;;;;;;;;;;;;-0.93;100.00;100845.91;4974122;28;19929;-69
2024/01/16 03:44:13;;;;;;;;;;;;;;;-0.88;100.00;100844.91;4975790;28;20304;-70
2024/01/16 03:46:38;;;;;;;;;;;;;;;-0.97;100.00;100839.03;4988451;28;20012;-69
2024/01/16 03:49:03;;;;;;;;;;;;;;;-0.95;100.00;100842.47;4977989;28;20188;-70
2024/01/16 03:51:28;;;;;;;;;;;;;;;-1.03;100.00;100841.81;4972852;28;19944;-70
2024/01/16 03:53:53;;;;;;;;;;;;;;;-1.04;100.00;100842.75;4975917;28;20381;-70
2024/01/16 03:56:19;;;;;;;;;;;;;;;-1.07;100.00;100830.53;4974635;28;20415;-70
2024/01/16 03:58:44;;;;;;;;;;;;;;;-1.03;100.00;100833.03;4978821;28;20033;-69
2024/01/16 04:01:09;;;;;;;;;;;;;;;-1.14;100.00;100843.91;4971898;28;19926;-70
2024/01/16 04:03:38;;;;;;;;;;;;;;;-1.19;100.00;100840.56;4975715;28;19921;-70
2024/01/16 04:06:04;;;;;;;;;;;;;;;-1.19;100.00;100837.94;4976477;28;20016;-70
2024/01/16 04:08:29;;;;;;;;;;;;;;;-1.23;100.00;100838.00;4973922;28;20032;-69
2024/01/16 04:10:54;;;;;;;;;;;;;;;-1.28;100.00;100839.91;4975588;28;19926;-69
2024/01/16 04:13:19;;;;;;;;;;;;;;;-1.23;100.00;100839.75;4974415;28;19921;-69
2024/01/16 04:15:44;;;;;;;;;;;;;;;-1.28;100.00;100834.63;4976884;28;19968;-69
2024/01/16 04:18:10;;;;;;;;;;;;;;;-1.24;100.00;100832.78;4975838;28;19932;-70
2024/01/16 04:20:35;;;;;;;;;;;;;;;-1.25;100.00;100836.31;4974223;28;19918;-69
2024/01/16 04:23:01;;;;;;;;;;;;;;;-1.33;100.00;100846.22;4974871;28;19929;-69
2024/01/16 04:25:26;;;;;;;;;;;;;;;-1.38;100.00;100847.22;4976617;28;19933;-69
2024/01/16 04:27:51;;;;;;;;;;;;;;;-1.41;100.00;100855.19;4972623;28;19922;-70
2024/01/16 04:30:16;;;;;;;;;;;;;;;-1.37;100.00;100850.69;4976647;28;19969;-69
2024/01/16 04:32:42;;;;;;;;;;;;;;;-1.37;100.00;100855.97;4969821;28;20001;-70
2024/01/16 04:35:07;;;;;;;;;;;;;;;-1.29;100.00;100861.88;4973450;28;19960;-70
2024/01/16 04:37:32;;;;;;;;;;;;;;;-1.20;100.00;100860.75;4987137;28;19930;-69
2024/01/16 04:39:59;;;;;;;;;;;;;;;-1.16;100.00;100865.03;4975912;28;19972;-70
2024/01/16 04:42:24;;;;;;;;;;;;;;;-1.14;100.00;100865.88;4966266;28;19953;-70
2024/01/16 04:44:49;;;;;;;;;;;;;;;-1.04;100.00;100884.03;4970296;28;19922;-69
2024/01/16 04:47:15;;;;;;;;;;;;;;;-1.04;100.00;100871.72;4971158;28;19932;-69
2024/01/16 04:49:41;;;;;;;;;;;;;;;-1.01;100.00;100878.66;4968489;28;19961;-69
2024/01/16 04:52:06;;;;;;;;;;;;;;;-1.07;100.00;100877.97;4976645;28;19925;-70
2024/01/16 04:54:32;;;;;;;;;;;;;;;-1.07;100.00;100870.06;4972488;28;20335;-69
2024/01/16 04:56:57;;;;;;;;;;;;;;;-1.02;100.00;100872.56;4971355;28;20423;-70
2024/01/16 04:59:22;;;;;;;;;;;;;;;-0.99;100.00;100868.94;4973143;28;19929;-69
2024/01/16 05:01:48;;;;;;;;;;;;;;;-0.96;100.00;100860.94;4973629;28;19922;-69
2024/01/16 05:04:13;;;;;;;;;;;;;;;-0.92;100.00;100854.69;4974941;28;19969;-69
2024/01/16 05:06:38;;;;;;;;;;;;;;;-0.99;100.00;100853.13;4972486;28;20005;-70
2024/01/16 05:09:04;;;;;;;;;;;;;;;-0.94;100.00;100856.50;4970777;28;19944;-69
2024/01/16 05:11:29;;;;;;;;;;;;;;;-1.04;100.00;100852.41;4975099;28;19969;-69
2024/01/16 05:13:57;;;;;;;;;;;;;;;-1.03;100.00;100847.09;4990364;28;19953;-69
2024/01/16 05:16:26;;;;;;;;;;;;;;;-1.09;100.00;100856.06;4974979;28;19976;-69
2024/01/16 05:18:51;;;;;;;;;;;;;;;-1.09;100.00;100842.88;4974168;28;20134;-69
2024/01/16 05:21:17;;;;;;;;;;;;;;;-1.12;100.00;100837.69;4974727;28;20356;-69
2024/01/16 05:23:42;;;;;;;;;;;;;;;-1.14;100.00;100834.25;4975315;28;19969;-70
2024/01/16 05:26:08;;;;;;;;;;;;;;;-1.14;100.00;100826.34;4990501;28;19922;-69
2024/01/16 05:28:33;;;;;;;;;;;;;;;-1.11;100.00;100826.25;4974084;28;19928;-70
2024/01/16 05:30:59;;;;;;;;;;;;;;;-1.11;100.00;100818.34;4975234;28;19922;-70
2024/01/16 05:33:24;;;;;;;;;;;;;;;-1.04;100.00;100810.22;4987109;28;19949;-69
2024/01/16 05:35:49;;;;;;;;;;;;;;;-1.10;100.00;100806.91;4972868;28;20036;-70
2024/01/16 05:38:15;;;;;;;;;;;;;;;-1.13;100.00;100806.09;4972771;28;19925;-69
2024/01/16 05:40:41;;;;;;;;;;;;;;;-1.13;100.00;100800.84;4972711;28;19945;-69
2024/01/16 05:43:06;;;;;;;;;;;;;;;-1.09;100.00;100805.09;4969673;28;19964;-70
2024/01/16 05:45:32;;;;;;;;;;;;;;;-1.09;100.00;100806.00;4971013;28;20008;-70
2024/01/16 05:47:57;;;;;;;;;;;;;;;-1.07;100.00;100803.28;4973724;28;19955;-70
2024/01/16 05:50:22;;;;;;;;;;;;;;;-1.06;100.00;100808.50;4972879;28;19921;-70
2024/01/16 05:52:47;;;;;;;;;;;;;;;-0.99;100.00;100810.97;4971451;28;20391;-69
2024/01/16 05:55:12;;;;;;;;;;;;;;;-1.02;100.00;100809.28;4974604;28;20249;-69
2024/01/16 05:57:38;;;;;;;;;;;;;;;-0.96;100.00;100805.59;4969316;28;20057;-69
2024/01/16 06:00:04;;;;;;;;;;;;;;;-0.97;100.00;100817.94;4975147;28;19922;-69
2024/01/16 06:02:29;;;;;;;;;;;;;;;-0.95;100.00;100817.88;4972226;28;19928;-69
2024/01/16 06:04:54;;;;;;;;;;;;;;;-0.99;100.00;100817.13;4967076;28;19922;-69
2024/01/16 06:07:19;;;;;;;;;;;;;;;-0.97;100.00;100810.03;4965973;28;20028;-69
2024/01/16 06:09:44;;;;;;;;;;;;;;;-0.97;100.00;100819.69;4975318;28;20012;-70
2024/01/16 06:12:12;;;;;;;;;;;;;;;-0.93;100.00;100818.69;4976948;28;19928;-69
2024/01/16 06:14:37;;;;;;;;;;;;;;;-0.95;100.00;100826.66;4971841;28;20112;-69
2024/01/16 06:17:03;;;;;;;;;;;;;;;-0.95;100.00;100821.38;4974130;28;19946;-69
2024/01/16 06:19:28;;;;;;;;;;;;;;;-0.93;100.00;100818.69;4973325;28;20412;-69
2024/01/16 06:21:53;;;;;;;;;;;;;;;-1.01;100.00;100820.69;4972085;28;19922;-69
2024/01/16 06:24:18;;;;;;;;;;;;;;;-0.96;100.00;100824.06;4972770;28;19988;-70
2024/01/16 06:26:43;;;;;;;;;;;;;;;-1.08;100.00;100826.16;4971908;28;20055;-70
2024/01/16 06:29:09;;;;;;;;;;;;;;;-1.02;100.00;100819.84;4991954;28;19921;-70
2024/01/16 06:31:34;;;;;;;;;;;;;;;-1.10;100.00;100825.34;4976515;28;19949;-70
2024/01/16 06:33:59;;;;;;;;;;;;;;;-1.04;100.00;100821.66;4976347;28;20379;-69
2024/01/16 06:36:24;;;;;;;;;;;;;;;-1.02;100.00;100825.09;4975463;28;19928;-69
2024/01/16 06:38:50;;;;;;;;;;;;;;;-1.09;100.00;100820.91;4985478;28;19933;-69
2024/01/16 06:41:15;;;;;;;;;;;;;;;-1.12;100.00;100829.78;4975435;28;19922;-70
2024/01/16 06:43:40;;;;;;;;;;;;;;;-1.16;100.00;100822.88;4977412;28;19973;-69
2024/01/16 06:46:05;;;;;;;;;;;;;;;-1.04;100.00;100828.69;4971258;28;20076;-69
2024/01/16 06:48:30;;;;;;;;;;;;;;;-1.13;100.00;100827.19;4978419;28;19953;-69
2024/01/16 06:50:56;;;;;;;;;;;;;;;-1.09;100.00;100823.56;4977353;28;20013;-70
2024/01/16 06:53:21;;;;;;;;;;;;;;;-1.10;100.00;100827.09;4978864;28;20320;-70
2024/01/16 06:55:46;;;;;;;;;;;;;;;-1.21;100.00;100830.06;4968277;28;20413;-69
2024/01/16 06:58:12;;;;;;;;;;;;;;;-1.29;100.00;100825.00;4983565;28;20571;-70
2024/01/16 07:00:37;;;;;;;;;;;;;;;-1.22;100.00;100828.31;4994311;28;20515;-69
2024/01/16 07:03:02;;;;;;;;;;;;;;;-1.24;100.00;100836.28;4974159;28;20464;-70
2024/01/16 07:05:29;;;;;;;;;;;;;;;-1.37;100.00;100835.78;4976933;28;19980;-69
2024/01/16 07:07:54;;;;;;;;;;;;;;;-1.41;100.00;100836.75;4955547;28;20841;-70
2024/01/16 07:10:21;;;;;;;;;;;;;;;-1.43;100.00;100837.69;4972704;28;20037;-69
2024/01/16 07:12:49;;;;;;;;;;;;;;;-1.54;100.00;100822.19;4990310;28;19926;-70
2024/01/16 07:15:14;;;;;;;;;;;;;;;-1.38;100.00;100849.84;4976525;28;21746;-70
2024/01/16 07:17:40;;;;;;;;;;;;;;;-1.44;100.00;100859.66;4974715;28;19926;-70
2024/01/16 07:20:05;;;;;;;;;;;;;;;-1.50;100.00;100855.44;4971596;28;19933;-70
2024/01/16 07:22:30;;;;;;;;;;;;;;;-1.44;100.00;100857.91;4990059;28;20674;-70
2024/01/16 07:24:56;;;;;;;;;;;;;;;-1.46;100.00;100861.50;4974979;28;19929;-70
2024/01/16 07:27:21;;;;;;;;;;;;;;;-1.49;100.00;100864.22;4980877;28;19965;-69
2024/01/16 07:29:46;;;;;;;;;;;;;;;-1.51;100.00;100864.25;4975116;28;19926;-70
2024/01/16 07:32:11;;;;;;;;;;;;;;;-1.47;100.00;100865.91;4986315;28;19926;-70
2024/01/16 07:34:37;;;;;;;;;;;;;;;-1.54;100.00;100872.22;4976508;28;20790;-69
2024/01/16 07:37:02;;;;;;;;;;;;;;;-1.50;100.00;100873.88;4973385;28;19965;-70
2024/01/16 07:39:27;;;;;;;;;;;;;;;-1.48;100.00;100872.06;4965764;28;19934;-69
2024/01/16 07:41:54;;;;;;;;;;;;;;;-1.47;100.00;100875.56;4975713;28;20410;-69
2024/01/16 07:44:19;;;;;;;;;;;;;;;-1.52;100.00;100876.56;4974423;28;19936;-70
2024/01/16 07:46:45;;;;;;;;;;;;;;;-1.52;100.00;100878.31;4971820;28;19928;-69
2024/01/16 07:49:10;;;;;;;;;;;;;;;-1.51;100.00;100878.28;4982801;28;20202;-70
2024/01/16 07:51:35;;;;;;;;;;;;;;;-1.53;100.00;100874.84;4977304;28;20397;-69
2024/01/16 07:54:05;;;;;;;;;;;;;;;-1.60;100.00;100891.69;4980391;28;20037;-70
2024/01/16 07:56:30;;;;;;;;;;;;;;;-1.56;100.00;100895.97;4976194;28;19934;-69
2024/01/16 07:58:55;;;;;;;;;;;;;;;-1.60;100.00;100896.09;4978363;28;19930;-70
2024/01/16 08:01:21;;;;;;;;;;;;;;;-1.63;100.00;100894.41;4986400;28;20396;-70
2024/01/16 08:03:46;;;;;;;;;;;;;;;-1.64;100.00;100897.09;4976462;28;20016;-69
2024/01/16 08:06:11;;;;;;;;;;;;;;;-1.62;100.00;100888.22;4975621;28;19949;-70
2024/01/16 08:08:36;;;;;;;;;;;;;;;-1.62;100.00;100887.38;4987109;28;19917;-70
2024/01/16 08:11:02;;;;;;;;;;;;;;;-1.59;100.00;100892.56;4975391;28;19922;-70
2024/01/16 08:13:28;;;;;;;;;;;;;;;-1.54;100.00;100902.06;4969038;28;19972;-70
2024/01/16 08:15:53;;;;;;;;;;;;;;;-1.55;100.00;100899.47;4969992;28;19929;-70
2024/01/16 08:18:18;;;;;;;;;;;;;;;-1.49;100.00;100904.56;4971617;28;19969;-69
2024/01/16 08:20:44;;;;;;;;;;;;;;;-1.53;100.00;100916.97;4973602;28;20013;-70
2024/01/16 08:23:09;;;;;;;;;;;;;;;-1.59;100.00;100911.84;4989253;28;20367;-71
2024/01/16 08:25:34;;;;;;;;;;;;;;;-1.41;100.00;100905.25;4971057;28;20594;-70
2024/01/16 08:28:00;;;;;;;;;;;;;;;-1.55;100.00;100905.59;4970621;28;20013;-70
2024/01/16 08:30:26;;;;;;;;;;;;;;;-1.55;100.00;100912.63;4968003;28;19984;-70
2024/01/16 08:32:51;;;;;;;;;;;;;;;-1.56;100.00;100900.38;4971312;28;20465;-70
2024/01/16 08:35:16;;;;;;;;;;;;;;;-1.55;100.00;100908.25;4982296;28;21154;-70
2024/01/16 08:37:41;;;;;;;;;;;;;;;-1.52;100.00;100905.53;4968809;28;19947;-70
2024/01/16 08:40:07;;;;;;;;;;;;;;;-1.56;100.00;100909.16;4966893;28;20296;-70
2024/01/16 08:42:32;;;;;;;;;;;;;;;-1.51;100.00;100909.00;4986976;28;19972;-70
2024/01/16 08:44:57;;;;;;;;;;;;;;;-1.47;100.00;100915.09;4972688;28;19968;-70
2024/01/16 08:47:22;;;;;;;;;;;;;;;-1.49;100.00;100919.53;4966640;28;20020;-70
2024/01/16 08:49:48;;;;;;;;;;;;;;;-1.45;100.00;100915.88;4988817;28;19925;-71
2024/01/16 08:52:13;;;;;;;;;;;;;;;-1.49;100.00;100920.38;4974674;28;19926;-71
2024/01/16 08:54:38;;;;;;;;;;;;;;;-1.49;100.00;100920.38;4970897;28;20327;-69
2024/01/16 08:57:04;;;;;;;;;;;;;;;-1.39;100.00;100919.25;4969567;28;19957;-69
2024/01/16 08:59:29;;;;;;;;;;;;;;;-1.44;100.00;100914.97;4966552;28;20080;-70
2024/01/16 09:01:54;;;;;;;;;;;;;;;-1.43;100.00;100914.06;4983245;28;19933;-70
2024/01/16 09:04:19;;;;;;;;;;;;;;;-1.44;100.00;100914.97;4973642;28;19933;-69
2024/01/16 09:06:45;;;;;;;;;;;;;;;-1.38;100.00;100915.69;4973456;28;20120;-70
2024/01/16 09:09:12;;;;;;;;;;;;;;;-1.37;100.00;100917.44;4952034;28;19960;-69
2024/01/16 09:11:37;;;;;;;;;;;;;;;-1.43;100.00;100921.97;4988969;28;20411;-70
2024/01/16 09:14:03;;;;;;;;;;;;;;;-1.45;100.00;100924.66;4979714;28;19921;-69
2024/01/16 09:16:28;;;;;;;;;;;;;;;-1.39;100.00;100931.53;4990804;28;20287;-69
2024/01/16 09:18:54;;;;;;;;;;;;;;;-1.31;100.00;100924.28;4977372;28;20087;-69
2024/01/16 09:21:19;;;;;;;;;;;;;;;-1.38;100.00;100923.59;4978495;28;20367;-71
2024/01/16 09:23:45;;;;;;;;;;;;;;;-1.29;100.00;100908.44;4998462;28;19971;-69
2024/01/16 09:26:10;;;;;;;;;;;;;;;-1.30;100.00;100920.75;4977394;28;20393;-70
2024/01/16 09:28:35;;;;;;;;;;;;;;;-1.32;100.00;100914.66;4990005;28;19962;-70
2024/01/16 09:31:01;;;;;;;;;;;;;;;-1.33;100.00;100914.72;4976940;28;20028;-70
2024/01/16 09:33:26;;;;;;;;;;;;;;;-1.26;100.00;100921.53;4972016;28;20004;-70
2024/01/16 09:35:51;;;;;;;;;;;;;;;-1.26;100.00;100925.03;4968168;28;19922;-69
2024/01/16 09:38:17;;;;;;;;;;;;;;;-1.14;100.00;100910.66;4987729;28;19930;-70
2024/01/16 09:40:42;;;;;;;;;;;;;;;-1.14;100.00;100909.78;4982770;28;20387;-70
2024/01/16 09:43:10;;;;;;;;;;;;;;;-1.16;100.00;100908.94;4993355;28;20718;-70
2024/01/16 09:45:37;;;;;;;;;;;;;;;-1.17;100.00;100907.22;4973231;28;19941;-69
2024/01/16 09:48:02;;;;;;;;;;;;;;;-1.18;100.00;100911.66;4972460;28;19926;-70
2024/01/16 09:50:27;;;;;;;;;;;;;;;-1.08;100.00;100915.75;4980448;28;20312;-69
2024/01/16 09:52:53;;;;;;;;;;;;;;;-1.01;100.00;100918.19;4972839;28;19918;-70
2024/01/16 09:55:18;;;;;;;;;;;;;;;-0.92;100.00;100918.81;4975227;28;19973;-70
2024/01/16 09:57:44;;;;;;;;;;;;;;;-0.95;100.00;100908.38;4976392;28;20463;-70
2024/01/16 10:00:13;;;;;;;;;;;;;;;-0.95;100.00;100904.84;4970639;28;19922;-70
2024/01/16 10:02:39;;;;;;;;;;;;;;;-0.94;100.00;100909.22;4980941;28;20358;-70
2024/01/16 10:05:05;;;;;;;;;;;;;;;-0.98;100.00;100900.56;4975572;28;19922;-71
2024/01/16 10:07:30;;;;;;;;;;;;;;;-0.94;100.00;100904.84;4995110;28;19918;-70
2024/01/16 10:09:58;;;;;;;;;;;;;;;-0.93;100.00;100901.25;4986032;28;19922;-70
2024/01/16 10:12:23;;;;;;;;;;;;;;;-0.85;100.00;100897.53;4970153;28;19949;-71
2024/01/16 10:14:50;;;;;;;;;;;;;;;-0.79;100.00;100897.38;4977319;28;20222;-71
2024/01/16 10:17:17;;;;;;;;;;;;;;;-0.62;100.00;100905.63;4978990;28;20501;-71
2024/01/16 10:19:49;;;;;;;;;;;;;;;-0.46;100.00;100906.03;4979659;28;19924;-70
2024/01/16 10:22:19;;;;;;;;;;;;;;;0.12;100.00;100894.53;4970358;28;19929;-71
2024/01/16 10:24:45;;;;;;;;;;;;;;;0.62;100.00;100884.91;4995454;28;19929;-71
2024/01/16 10:27:10;;;;;;;;;;;;;;;1.08;100.00;100885.00;4975353;28;19921;-72
2024/01/16 10:29:36;;;;;;;;;;;;;;;1.64;100.00;100873.13;4979403;28;19940;-71
2024/01/16 10:32:01;;;;;;;;;;;;;;;1.95;100.00;100869.25;4979768;28;19922;-71
2024/01/16 10:34:27;;;;;;;;;;;;;;;1.77;100.00;100872.66;4979742;28;19921;-71
2024/01/16 10:36:57;;;;;;;;;;;;;;;1.65;100.00;100874.00;4980905;28;19940;-73
2024/01/16 10:39:23;;;;;;;;;;;;;;;1.53;100.00;100871.84;4993570;28;20376;-71
2024/01/16 10:41:57;;;;;;;;;;;;;;;1.14;100.00;100870.69;4992481;28;19922;-71
2024/01/16 10:44:23;;;;;;;;;;;;;;;0.70;100.00;100872.28;4979168;28;19932;-73
2024/01/16 10:46:48;;;;;;;;;;;;;;;0.44;100.00;100873.19;4976476;28;19921;-73
2024/01/16 10:49:13;;;;;;;;;;;;;;;0.12;100.00;100856.72;4980743;28;20008;-72
2024/01/16 10:51:39;;;;;;;;;;;;;;;0.88;100.00;100862.81;4977853;28;19922;-71
2024/01/16 10:54:09;;;;;;;;;;;;;;;1.70;100.00;100869.41;4971802;28;20427;-72
2024/01/16 10:56:35;;;;;;;;;;;;;;;2.68;100.00;100863.53;4996087;28;19969;-71
2024/01/16 10:59:06;;;;;;;;;;;;;;;3.09;100.00;100865.22;4977781;28;19922;-71
2024/01/16 11:01:31;;;;;;;;;;;;;;;2.93;100.00;100870.38;4975279;28;19960;-72
2024/01/16 11:03:57;;;;;;;;;;;;;;;3.43;100.00;100871.63;4995409;28;20319;-71
2024/01/16 11:06:22;;;;;;;;;;;;;;;3.72;100.00;100858.72;4968744;28;20277;-71
2024/01/16 11:08:48;;;;;;;;;;;;;;;3.43;100.00;100857.47;4992984;28;20408;-72
2024/01/16 11:11:13;;;;;;;;;;;;;;;3.93;100.00;100841.78;4962826;28;20447;-73
2024/01/16 11:13:38;;;;;;;;;;;;;;;3.59;100.00;100841.66;4984341;28;19962;-72
2024/01/16 11:16:04;;;;;;;;;;;;;;;3.90;100.00;100835.69;4978949;28;19921;-71
2024/01/16 11:18:30;;;;;;;;;;;;;;;3.89;100.00;100839.28;4973986;28;19932;-72
2024/01/16 11:20:55;;;;;;;;;;;;;;;4.35;100.00;100835.25;4978162;28;19918;-72
2024/01/16 11:23:20;;;;;;;;;;;;;;;4.67;100.00;100829.19;4990395;28;20373;-72
2024/01/16 11:25:45;;;;;;;;;;;;;;;4.97;100.00;100831.13;4977148;28;19932;-72
2024/01/16 11:28:12;;;;;;;;;;;;;;;5.22;100.00;100823.50;4973178;28;19997;-72
2024/01/16 11:30:37;;;;;;;;;;;;;;;5.02;100.00;100819.28;4972419;28;19997;-72
2024/01/16 11:33:04;;;;;;;;;;;;;;;4.95;100.00;100813.44;4978527;28;19928;-74
2024/01/16 11:35:33;;;;;;;;;;;;;;;4.54;100.00;100805.03;4979214;28;20559;-73
2024/01/16 11:38:14;;;;;;;;;;;;;;;4.72;100.00;100811.16;4992640;28;19933;-72
2024/01/16 11:40:39;;;;;;;;;;;;;;;5.02;100.00;100818.44;4980552;28;20396;-73
2024/01/16 11:43:23;;;;;;;;;;;;;;;5.50;100.00;100824.63;4977545;28;19918;-72
2024/01/16 11:45:49;;;;;;;;;;;;;;;6.12;100.00;100813.06;4978209;28;19922;-73
2024/01/16 11:48:15;;;;;;;;;;;;;;;6.35;100.00;100807.31;4978136;28;19949;-72
2024/01/16 11:50:40;;;;;;;;;;;;;;;6.09;100.00;100810.59;4979167;28;20012;-72
2024/01/16 11:53:06;;;;;;;;;;;;;;;5.80;100.00;100809.63;4971440;28;20202;-73
2024/01/16 11:55:32;;;;;;;;;;;;;;;5.94;100.00;100803.47;4975089;28;20271;-72
2024/01/16 11:58:12;;;;;;;;;;;;;;;6.36;100.00;100803.69;4977589;28;19925;-72
2024/01/16 12:00:39;;;;;;;;;;;;;;;6.56;100.00;100802.47;4993129;28;19918;-72
2024/01/16 12:03:04;;;;;;;;;;;;;;;6.06;100.00;100808.13;4989188;28;20316;-73
2024/01/16 12:05:29;;;;;;;;;;;;;;;6.33;100.00;100801.22;4981992;28;20395;-72
2024/01/16 12:07:55;;;;;;;;;;;;;;;6.33;100.00;100796.75;4975722;28;19949;-74
2024/01/16 12:10:21;;;;;;;;;;;;;;;6.13;100.00;100808.63;4993798;28;20044;-72
2024/01/16 12:12:46;;;;;;;;;;;;;;;5.97;100.00;100795.31;4975583;28;20651;-73
2024/01/16 12:15:21;;;;;;;;;;;;;;;5.84;100.00;100788.00;4978473;28;19926;-72
2024/01/16 12:17:54;;;;;;;;;;;;;;;5.72;100.00;100794.06;4988469;28;20649;-72
2024/01/16 12:20:19;;;;;;;;;;;;;;;6.30;100.00;100784.44;4986497;28;19926;-72